createdAt,value
2017-08-16T00:01:57.240Z,19.50
2017-08-16T00:04:23.554Z,19.50
2017-08-16T00:06:49.837Z,19.50
2017-08-16T00:09:16.126Z,19.50
2017-08-16T00:11:43.196Z,19.50
2017-08-16T00:14:09.516Z,19.50
2017-08-16T00:16:36.575Z,19.60
2017-08-16T00:19:02.851Z,19.50
2017-08-16T00:21:29.140Z,19.60
2017-08-16T00:23:55.438Z,19.60
2017-08-16T00:26:22.471Z,19.50
2017-08-16T00:28:48.782Z,19.50
2017-08-16T00:31:15.244Z,19.50
2017-08-16T00:33:42.304Z,19.40
2017-08-16T00:36:08.668Z,19.40
2017-08-16T00:38:34.963Z,19.40
2017-08-16T00:41:02.011Z,19.40
2017-08-16T00:43:29.039Z,19.30
2017-08-16T00:45:55.336Z,19.30
2017-08-16T00:48:21.615Z,19.30
2017-08-16T00:50:48.685Z,19.40
2017-08-16T00:53:14.983Z,19.30
2017-08-16T00:55:42.032Z,19.40
2017-08-16T00:58:09.154Z,19.40
2017-08-16T01:00:35.532Z,19.40
2017-08-16T01:03:01.835Z,19.40
2017-08-16T01:05:28.111Z,19.30
2017-08-16T01:08:01.525Z,19.30
2017-08-16T01:10:27.829Z,19.20
2017-08-16T01:12:54.151Z,19.20
2017-08-16T01:15:20.437Z,19.30
2017-08-16T01:17:46.919Z,19.30
2017-08-16T01:20:13.208Z,19.20
2017-08-16T01:22:39.517Z,19.20
2017-08-16T01:25:05.857Z,19.20
2017-08-16T01:27:32.195Z,19.20
2017-08-16T01:29:58.535Z,19.20
2017-08-16T01:32:24.816Z,19.20
2017-08-16T01:34:51.136Z,19.30
2017-08-16T01:37:17.452Z,19.10
2017-08-16T01:39:43.767Z,19.00
2017-08-16T01:42:10.824Z,19.00
2017-08-16T01:44:37.889Z,19.00
2017-08-16T01:47:04.201Z,18.90
2017-08-16T01:49:31.271Z,18.90
2017-08-16T01:51:57.632Z,18.80
2017-08-16T01:54:23.971Z,18.80
2017-08-16T01:56:50.260Z,18.80
2017-08-16T01:59:16.544Z,18.70
2017-08-16T02:01:42.843Z,18.60
2017-08-16T02:04:09.116Z,18.50
2017-08-16T02:06:36.148Z,18.40
2017-08-16T02:09:02.427Z,18.40
2017-08-16T02:11:28.731Z,18.40
2017-08-16T02:13:55.751Z,18.20
2017-08-16T02:16:23.608Z,18.10
2017-08-16T02:18:49.923Z,18.10
2017-08-16T02:21:16.229Z,18.00
2017-08-16T02:23:42.527Z,18.00
2017-08-16T02:26:09.561Z,17.80
2017-08-16T02:28:35.879Z,17.80
2017-08-16T02:31:02.137Z,17.80
2017-08-16T02:33:29.252Z,17.70
2017-08-16T02:35:55.623Z,17.70
2017-08-16T02:38:21.909Z,17.70
2017-08-16T02:40:48.231Z,17.60
2017-08-16T02:43:14.511Z,17.60
2017-08-16T02:45:40.796Z,17.50
2017-08-16T02:48:07.124Z,17.70
2017-08-16T02:50:33.489Z,17.60
2017-08-16T02:53:00.500Z,17.50
2017-08-16T02:55:26.829Z,17.60
2017-08-16T02:57:53.171Z,17.50
2017-08-16T03:00:19.534Z,17.50
2017-08-16T03:02:45.876Z,17.40
2017-08-16T03:05:12.170Z,17.40
2017-08-16T03:07:38.490Z,17.40
2017-08-16T03:10:04.796Z,17.40
2017-08-16T03:12:31.075Z,17.50
2017-08-16T03:14:57.355Z,17.50
2017-08-16T03:17:23.756Z,17.50
2017-08-16T03:19:50.171Z,17.50
2017-08-16T03:22:17.303Z,17.20
2017-08-16T03:24:44.330Z,17.20
2017-08-16T03:27:10.639Z,17.20
2017-08-16T03:29:36.954Z,17.10
2017-08-16T03:32:03.267Z,17.10
2017-08-16T03:34:30.327Z,17.20
2017-08-16T03:36:56.667Z,17.10
2017-08-16T03:39:23.193Z,17.10
2017-08-16T03:41:49.521Z,17.00
2017-08-16T03:44:15.839Z,16.90
2017-08-16T03:46:42.896Z,17.00
2017-08-16T03:49:09.345Z,17.00
2017-08-16T03:51:35.692Z,16.90
2017-08-16T03:54:01.996Z,16.90
2017-08-16T03:56:28.291Z,16.90
2017-08-16T03:58:54.595Z,16.90
2017-08-16T04:01:20.868Z,16.80
2017-08-16T04:03:47.911Z,16.80
2017-08-16T04:06:15.287Z,16.90
2017-08-16T04:08:41.618Z,16.90
2017-08-16T04:11:08.024Z,17.00
2017-08-16T04:13:34.347Z,17.00
2017-08-16T04:16:01.391Z,16.80
2017-08-16T04:18:27.968Z,16.80
2017-08-16T04:20:54.272Z,16.70
2017-08-16T04:23:21.295Z,16.60
2017-08-16T04:25:47.627Z,16.60
2017-08-16T04:28:13.995Z,16.60
2017-08-16T04:30:40.288Z,16.80
2017-08-16T04:33:07.466Z,16.90
2017-08-16T04:35:33.801Z,16.90
2017-08-16T04:38:00.107Z,17.00
2017-08-16T04:40:27.156Z,17.20
2017-08-16T04:42:54.187Z,17.30
2017-08-16T04:45:20.499Z,17.30
2017-08-16T04:47:46.879Z,17.40
2017-08-16T04:50:13.983Z,17.60
2017-08-16T04:52:40.301Z,17.60
2017-08-16T04:55:06.592Z,17.70
2017-08-16T04:57:32.899Z,17.90
2017-08-16T04:59:59.340Z,18.00
2017-08-16T05:02:26.396Z,18.70
2017-08-16T05:04:52.719Z,18.70
2017-08-16T05:07:19.822Z,20.50
2017-08-16T05:09:46.137Z,20.40
2017-08-16T05:12:12.445Z,21.90
2017-08-16T05:14:38.769Z,23.30
2017-08-16T05:17:05.075Z,24.60
2017-08-16T05:19:31.371Z,25.80
2017-08-16T05:21:57.707Z,26.90
2017-08-16T05:24:24.040Z,27.90
2017-08-16T05:26:50.360Z,28.60
2017-08-16T05:29:16.628Z,29.30
2017-08-16T05:31:43.071Z,29.90
2017-08-16T05:34:10.123Z,30.90
2017-08-16T05:36:37.195Z,31.50
2017-08-16T05:39:03.576Z,31.40
2017-08-16T05:41:29.860Z,31.90
2017-08-16T05:43:56.403Z,32.30
2017-08-16T05:46:22.668Z,32.80
2017-08-16T05:48:48.968Z,33.50
2017-08-16T05:51:15.264Z,34.00
2017-08-16T05:53:41.562Z,34.10
2017-08-16T05:56:08.664Z,34.80
2017-08-16T05:58:34.945Z,34.80
2017-08-16T06:01:02.010Z,36.10
2017-08-16T06:03:28.317Z,36.00
2017-08-16T06:05:55.542Z,37.70
2017-08-16T06:08:21.848Z,37.60
2017-08-16T06:10:48.213Z,38.30
2017-08-16T06:13:14.527Z,38.60
2017-08-16T06:15:40.807Z,38.70
2017-08-16T06:18:07.862Z,37.90
2017-08-16T06:20:34.215Z,37.80
2017-08-16T06:23:00.539Z,36.60
2017-08-16T06:25:26.842Z,36.50
2017-08-16T06:27:53.893Z,37.40
2017-08-16T06:30:20.979Z,38.10
2017-08-16T06:32:47.283Z,38.10
2017-08-16T06:35:13.572Z,38.90
2017-08-16T06:37:39.880Z,39.90
2017-08-16T06:40:06.192Z,40.70
2017-08-16T06:42:32.456Z,41.10
2017-08-16T06:44:58.770Z,41.10
2017-08-16T06:47:25.062Z,41.50
2017-08-16T06:49:51.363Z,41.30
2017-08-16T06:52:18.416Z,42.00
2017-08-16T06:54:44.693Z,42.00
2017-08-16T06:57:11.025Z,42.90
2017-08-16T06:59:37.313Z,43.30
2017-08-16T07:02:04.364Z,43.60
2017-08-16T07:04:31.431Z,43.60
2017-08-16T07:06:57.956Z,43.60
2017-08-16T07:09:24.256Z,43.30
2017-08-16T07:11:51.384Z,40.80
2017-08-16T07:14:17.741Z,40.70
2017-08-16T07:16:44.068Z,39.90
2017-08-16T07:19:11.248Z,38.00
2017-08-16T07:21:37.547Z,38.00
2017-08-16T07:24:04.592Z,34.90
2017-08-16T07:26:31.669Z,33.50
2017-08-16T07:28:58.096Z,33.50
2017-08-16T07:31:24.407Z,32.70
2017-08-16T07:33:51.439Z,31.20
2017-08-16T07:36:18.496Z,30.70
2017-08-16T07:38:44.816Z,30.70
2017-08-16T07:41:11.085Z,30.60
2017-08-16T07:43:37.404Z,32.10
2017-08-16T07:46:04.423Z,35.20
2017-08-16T07:48:30.714Z,35.20
2017-08-16T07:50:57.055Z,36.10
2017-08-16T07:53:23.358Z,36.10
2017-08-16T07:55:49.709Z,35.30
2017-08-16T07:58:16.028Z,34.50
2017-08-16T08:00:42.368Z,33.70
2017-08-16T08:03:08.659Z,32.80
2017-08-16T08:05:35.694Z,32.80
2017-08-16T08:08:02.753Z,35.40
2017-08-16T08:10:29.813Z,37.60
2017-08-16T08:12:56.155Z,37.50
2017-08-16T08:15:22.484Z,38.80
2017-08-16T08:17:48.811Z,39.60
2017-08-16T08:20:15.105Z,39.10
2017-08-16T08:22:42.132Z,36.00
2017-08-16T08:25:08.481Z,35.90
2017-08-16T08:27:35.580Z,33.40
2017-08-16T08:30:01.932Z,33.40
2017-08-16T08:32:28.224Z,32.40
2017-08-16T08:34:54.529Z,31.50
2017-08-16T08:37:21.596Z,30.50
2017-08-16T08:39:47.948Z,30.40
2017-08-16T08:42:14.346Z,32.50
2017-08-16T08:44:41.548Z,39.50
2017-08-16T08:47:08.023Z,39.30
2017-08-16T08:49:35.069Z,42.10
2017-08-16T08:52:02.119Z,40.70
2017-08-16T08:54:29.244Z,39.20
2017-08-16T08:56:55.556Z,39.20
2017-08-16T08:59:21.868Z,38.00
2017-08-16T09:01:48.156Z,37.20
2017-08-16T09:04:14.447Z,36.20
2017-08-16T09:06:40.748Z,36.30
2017-08-16T09:09:07.246Z,36.20
2017-08-16T09:11:34.294Z,37.40
2017-08-16T09:14:01.388Z,37.30
2017-08-16T09:16:27.685Z,37.30
2017-08-16T09:18:53.996Z,36.90
2017-08-16T09:21:21.063Z,36.80
2017-08-16T09:23:47.369Z,36.80
2017-08-16T09:26:13.699Z,36.50
2017-08-16T09:28:40.752Z,34.40
2017-08-16T09:31:07.964Z,33.20
2017-08-16T09:33:34.269Z,33.20
2017-08-16T09:36:00.563Z,32.20
2017-08-16T09:38:26.889Z,31.40
2017-08-16T09:40:53.252Z,30.80
2017-08-16T09:43:19.524Z,30.90
2017-08-16T09:45:45.907Z,31.40
2017-08-16T09:48:12.195Z,31.40
2017-08-16T09:50:38.499Z,31.70
2017-08-16T09:53:04.887Z,32.30
2017-08-16T09:55:31.931Z,34.00
2017-08-16T09:57:59.019Z,34.30
2017-08-16T10:00:25.351Z,34.30
2017-08-16T10:02:51.692Z,33.90
2017-08-16T10:05:18.175Z,33.40
2017-08-16T10:07:44.475Z,32.80
2017-08-16T10:10:10.767Z,32.20
2017-08-16T10:12:37.083Z,31.60
2017-08-16T10:15:03.364Z,31.20
2017-08-16T10:17:29.679Z,30.80
2017-08-16T10:19:55.961Z,30.70
2017-08-16T10:22:22.256Z,30.60
2017-08-16T10:24:48.580Z,30.40
2017-08-16T10:27:14.939Z,30.30
2017-08-16T10:29:42.059Z,30.10
2017-08-16T10:32:08.367Z,30.10
2017-08-16T10:34:34.788Z,30.00
2017-08-16T10:37:01.063Z,29.90
2017-08-16T10:39:27.367Z,29.90
2017-08-16T10:41:54.475Z,29.80
2017-08-16T10:44:20.801Z,29.70
2017-08-16T10:46:47.079Z,29.60
2017-08-16T10:49:13.385Z,29.40
2017-08-16T10:51:39.759Z,29.30
2017-08-16T10:54:06.036Z,29.10
2017-08-16T10:56:32.315Z,29.10
2017-08-16T10:58:58.634Z,28.80
2017-08-16T11:01:24.934Z,28.60
2017-08-16T11:03:51.279Z,28.80
2017-08-16T11:06:17.601Z,28.80
2017-08-16T11:08:43.901Z,28.70
2017-08-16T11:11:10.176Z,28.50
2017-08-16T11:13:36.508Z,28.40
2017-08-16T11:16:02.939Z,28.40
2017-08-16T11:18:29.441Z,28.50
2017-08-16T11:20:55.724Z,28.30
2017-08-16T11:23:22.069Z,28.40
2017-08-16T11:25:48.430Z,28.60
2017-08-16T11:28:14.752Z,28.90
2017-08-16T11:30:41.088Z,29.30
2017-08-16T11:33:07.408Z,29.70
2017-08-16T11:35:33.700Z,29.60
2017-08-16T11:38:00.060Z,29.70
2017-08-16T11:40:26.407Z,29.80
2017-08-16T11:42:52.750Z,29.90
2017-08-16T11:45:19.051Z,30.10
2017-08-16T11:47:45.361Z,30.30
2017-08-16T11:50:12.392Z,30.30
2017-08-16T11:52:38.678Z,30.30
2017-08-16T11:55:05.000Z,30.20
2017-08-16T11:57:31.436Z,30.20
2017-08-16T11:59:57.868Z,30.00
2017-08-16T12:02:24.227Z,29.60
2017-08-16T12:04:50.527Z,29.00
2017-08-16T12:07:16.820Z,28.70
2017-08-16T12:09:43.154Z,28.50
2017-08-16T12:12:10.181Z,28.20
2017-08-16T12:14:36.478Z,28.20
2017-08-16T12:17:02.789Z,27.80
2017-08-16T12:19:29.136Z,27.70
2017-08-16T12:21:55.457Z,27.50
2017-08-16T12:24:21.755Z,27.40
2017-08-16T12:26:48.047Z,27.20
2017-08-16T12:29:14.408Z,27.20
2017-08-16T12:31:41.765Z,27.40
2017-08-16T12:34:08.855Z,27.40
2017-08-16T12:36:35.136Z,27.40
2017-08-16T12:39:01.463Z,27.60
2017-08-16T12:41:27.816Z,27.70
2017-08-16T12:43:54.843Z,27.60
2017-08-16T12:46:21.160Z,27.60
2017-08-16T12:48:47.508Z,27.50
2017-08-16T12:51:14.556Z,27.30
2017-08-16T12:53:41.672Z,27.20
2017-08-16T12:56:08.276Z,27.20
2017-08-16T12:58:34.575Z,27.30
2017-08-16T13:01:00.907Z,27.50
2017-08-16T13:03:27.199Z,27.60
2017-08-16T13:05:53.543Z,27.70
2017-08-16T13:08:19.864Z,27.70
2017-08-16T13:10:46.207Z,27.70
2017-08-16T13:13:12.725Z,27.80
2017-08-16T13:15:39.023Z,27.60
2017-08-16T13:18:05.306Z,27.50
2017-08-16T13:20:31.631Z,27.50
2017-08-16T13:22:58.658Z,27.70
2017-08-16T13:25:24.959Z,27.70
2017-08-16T13:27:51.274Z,27.90
2017-08-16T13:30:17.616Z,27.90
2017-08-16T13:32:43.951Z,27.90
2017-08-16T13:35:10.272Z,27.70
2017-08-16T13:37:36.564Z,27.50
2017-08-16T13:40:02.867Z,27.50
2017-08-16T13:42:29.212Z,27.50
2017-08-16T13:44:55.529Z,27.50
2017-08-16T13:47:21.856Z,27.60
2017-08-16T13:49:48.152Z,27.70
2017-08-16T13:52:14.455Z,27.90
2017-08-16T13:54:40.792Z,28.10
2017-08-16T13:57:07.457Z,28.50
2017-08-16T13:59:33.764Z,28.60
2017-08-16T14:02:00.863Z,28.60
2017-08-16T14:04:27.192Z,28.60
2017-08-16T14:06:53.673Z,28.90
2017-08-16T14:09:20.045Z,28.90
2017-08-16T14:11:46.377Z,29.00
2017-08-16T14:14:12.677Z,28.90
2017-08-16T14:16:39.032Z,28.80
2017-08-16T14:19:05.345Z,28.70
2017-08-16T14:21:31.735Z,28.60
2017-08-16T14:23:58.021Z,28.50
2017-08-16T14:26:24.357Z,28.50
2017-08-16T14:28:50.690Z,28.40
2017-08-16T14:31:17.016Z,28.40
2017-08-16T14:33:43.340Z,28.20
2017-08-16T14:36:09.627Z,28.00
2017-08-16T14:38:35.951Z,27.80
2017-08-16T14:41:02.995Z,27.90
2017-08-16T14:43:29.300Z,27.90
2017-08-16T14:45:55.699Z,27.90
2017-08-16T14:48:21.979Z,27.80
2017-08-16T14:50:48.280Z,27.80
2017-08-16T14:53:14.600Z,27.90
2017-08-16T14:55:40.956Z,27.90
2017-08-16T14:58:07.271Z,27.90
2017-08-16T15:00:33.568Z,27.90
2017-08-16T15:02:59.899Z,28.10
2017-08-16T15:05:26.357Z,28.10
2017-08-16T15:07:52.687Z,28.20
2017-08-16T15:10:19.132Z,28.20
2017-08-16T15:12:45.491Z,28.30
2017-08-16T15:15:12.569Z,28.20
2017-08-16T15:17:38.859Z,28.20
2017-08-16T15:20:05.188Z,28.20
2017-08-16T15:22:31.524Z,28.10
2017-08-16T15:24:57.899Z,28.00
2017-08-16T15:27:24.221Z,28.00
2017-08-16T15:29:50.551Z,28.00
2017-08-16T15:32:16.847Z,27.90
2017-08-16T15:34:43.184Z,27.90
2017-08-16T15:37:10.288Z,27.70
2017-08-16T15:39:36.617Z,27.70
2017-08-16T15:42:02.971Z,27.50
2017-08-16T15:44:29.308Z,27.20
2017-08-16T15:46:55.609Z,27.10
2017-08-16T15:49:22.035Z,26.90
2017-08-16T15:51:48.351Z,26.70
2017-08-16T15:54:14.641Z,26.60
2017-08-16T15:56:40.955Z,26.70
2017-08-16T15:59:07.221Z,26.80
2017-08-16T16:01:33.540Z,26.90
2017-08-16T16:03:59.871Z,27.10
2017-08-16T16:06:26.248Z,27.20
2017-08-16T16:08:52.556Z,27.10
2017-08-16T16:11:18.851Z,27.00
2017-08-16T16:13:45.169Z,26.90
2017-08-16T16:16:11.477Z,26.90
2017-08-16T16:18:37.843Z,26.80
2017-08-16T16:21:04.881Z,26.70
2017-08-16T16:23:32.009Z,26.60
2017-08-16T16:25:58.287Z,26.60
2017-08-16T16:28:24.672Z,26.60
2017-08-16T16:30:51.049Z,26.60
2017-08-16T16:33:18.404Z,26.50
2017-08-16T16:35:44.750Z,26.50
2017-08-16T16:38:11.160Z,26.60
2017-08-16T16:40:37.544Z,26.70
2017-08-16T16:43:03.812Z,26.50
2017-08-16T16:45:30.152Z,26.50
2017-08-16T16:47:57.196Z,26.40
2017-08-16T16:50:23.501Z,26.40
2017-08-16T16:52:49.858Z,26.30
2017-08-16T16:55:16.166Z,26.30
2017-08-16T16:57:42.478Z,26.20
2017-08-16T17:00:08.823Z,26.00
2017-08-16T17:02:35.096Z,26.00
2017-08-16T17:05:01.463Z,26.00
2017-08-16T17:07:27.760Z,25.80
2017-08-16T17:09:54.102Z,25.70
2017-08-16T17:12:20.385Z,25.60
2017-08-16T17:14:46.752Z,25.60
2017-08-16T17:17:13.169Z,25.50
2017-08-16T17:19:39.661Z,25.40
2017-08-16T17:22:05.994Z,25.50
2017-08-16T17:24:32.352Z,25.50
2017-08-16T17:26:59.581Z,25.50
2017-08-16T17:29:25.940Z,25.40
2017-08-16T17:31:52.600Z,25.50
2017-08-16T17:34:18.966Z,25.50
2017-08-16T17:36:45.274Z,25.50
2017-08-16T17:39:11.624Z,25.40
2017-08-16T17:41:37.965Z,25.30
2017-08-16T17:44:04.261Z,25.30
2017-08-16T17:46:30.584Z,25.30
2017-08-16T17:48:56.924Z,25.30
2017-08-16T17:51:23.297Z,25.20
2017-08-16T17:53:49.633Z,25.20
2017-08-16T17:56:16.097Z,25.10
2017-08-16T17:58:42.404Z,25.00
2017-08-16T18:01:08.737Z,25.00
2017-08-16T18:03:35.059Z,24.90
2017-08-16T18:06:01.390Z,24.70
2017-08-16T18:08:28.448Z,24.50
2017-08-16T18:10:55.564Z,24.40
2017-08-16T18:13:21.917Z,24.30
2017-08-16T18:15:49.040Z,24.10
2017-08-16T18:18:15.556Z,24.10
2017-08-16T18:20:41.924Z,24.00
2017-08-16T18:23:15.550Z,24.00
2017-08-16T18:25:41.838Z,23.80
2017-08-16T18:28:08.174Z,23.70
2017-08-16T18:30:34.500Z,23.50
2017-08-16T18:33:00.828Z,23.50
2017-08-16T18:35:27.316Z,23.50
2017-08-16T18:37:53.677Z,23.30
2017-08-16T18:40:20.037Z,23.20
2017-08-16T18:42:46.365Z,23.10
2017-08-16T18:45:12.676Z,23.00
2017-08-16T18:47:39.254Z,22.90
2017-08-16T18:50:06.306Z,22.90
2017-08-16T18:52:32.608Z,22.90
2017-08-16T18:54:58.912Z,22.90
2017-08-16T18:57:25.254Z,22.80
2017-08-16T18:59:51.587Z,22.70
2017-08-16T19:02:17.930Z,22.70
2017-08-16T19:04:44.364Z,22.60
2017-08-16T19:07:10.744Z,22.50
2017-08-16T19:09:37.065Z,22.40
2017-08-16T19:12:03.363Z,22.30
2017-08-16T19:14:30.319Z,22.20
2017-08-16T19:16:56.636Z,22.10
2017-08-16T19:19:22.975Z,22.10
2017-08-16T19:21:50.084Z,21.90
2017-08-16T19:24:16.403Z,21.90
2017-08-16T19:26:42.716Z,21.80
2017-08-16T19:29:09.032Z,21.80
2017-08-16T19:31:35.369Z,21.70
2017-08-16T19:34:01.855Z,21.60
2017-08-16T19:36:28.154Z,21.50
2017-08-16T19:38:54.526Z,21.50
2017-08-16T19:41:20.908Z,21.50
2017-08-16T19:43:47.233Z,21.40
2017-08-16T19:46:13.553Z,21.40
2017-08-16T19:48:39.851Z,21.30
2017-08-16T19:51:06.236Z,21.30
2017-08-16T19:53:32.552Z,21.20
2017-08-16T19:55:58.945Z,21.10
2017-08-16T19:58:25.314Z,21.10
2017-08-16T20:00:51.656Z,21.00
2017-08-16T20:03:17.976Z,20.90
2017-08-16T20:05:44.309Z,20.80
2017-08-16T20:08:10.669Z,20.70
2017-08-16T20:10:36.991Z,20.70
2017-08-16T20:13:03.373Z,20.70
2017-08-16T20:15:29.673Z,20.60
2017-08-16T20:17:56.109Z,20.70
2017-08-16T20:20:22.443Z,20.60
2017-08-16T20:22:48.772Z,20.60
2017-08-16T20:25:15.110Z,20.60
2017-08-16T20:27:41.435Z,20.50
2017-08-16T20:30:07.789Z,20.40
2017-08-16T20:32:34.858Z,20.30
2017-08-16T20:35:01.305Z,20.30
2017-08-16T20:37:27.620Z,20.30
2017-08-16T20:39:53.971Z,20.30
2017-08-16T20:42:20.302Z,20.20
2017-08-16T20:44:46.632Z,20.20
2017-08-16T20:47:13.043Z,20.20
2017-08-16T20:49:39.368Z,20.20
2017-08-16T20:52:05.684Z,20.10
2017-08-16T20:54:32.773Z,20.00
2017-08-16T20:56:59.143Z,20.00
2017-08-16T20:59:25.481Z,20.00
2017-08-16T21:01:52.538Z,19.90
2017-08-16T21:04:19.613Z,19.90
2017-08-16T21:06:45.947Z,19.90
2017-08-16T21:09:12.273Z,19.90
2017-08-16T21:11:38.616Z,19.80
2017-08-16T21:14:04.938Z,19.80
2017-08-16T21:16:31.304Z,19.80
2017-08-16T21:18:57.609Z,19.80
2017-08-16T21:21:23.939Z,19.70
2017-08-16T21:23:50.269Z,19.70
2017-08-16T21:26:16.548Z,19.70
2017-08-16T21:28:42.868Z,19.70
2017-08-16T21:31:09.361Z,19.60
2017-08-16T21:33:35.736Z,19.60
2017-08-16T21:36:02.797Z,19.60
2017-08-16T21:38:29.839Z,19.60
2017-08-16T21:40:56.181Z,19.60
2017-08-16T21:43:23.256Z,19.50
2017-08-16T21:45:49.563Z,19.50
2017-08-16T21:48:15.887Z,19.50
2017-08-16T21:50:42.961Z,19.40
2017-08-16T21:53:09.264Z,19.40
2017-08-16T21:55:36.285Z,19.30
2017-08-16T21:58:02.612Z,19.30
2017-08-16T22:00:28.923Z,19.30
2017-08-16T22:02:55.237Z,19.20
2017-08-16T22:05:21.641Z,19.30
2017-08-16T22:07:48.140Z,19.30
2017-08-16T22:10:14.454Z,19.50
2017-08-16T22:12:40.765Z,19.50
2017-08-16T22:15:07.157Z,19.60
2017-08-16T22:17:34.275Z,19.50
2017-08-16T22:20:00.591Z,19.50
2017-08-16T22:22:26.909Z,19.50
2017-08-16T22:24:53.250Z,19.50
2017-08-16T22:27:19.544Z,19.40
2017-08-16T22:29:45.869Z,19.30
2017-08-16T22:32:12.189Z,19.20
2017-08-16T22:34:38.498Z,19.10
2017-08-16T22:37:05.560Z,19.00
2017-08-16T22:39:32.614Z,19.00
2017-08-16T22:41:59.680Z,18.90
2017-08-16T22:44:26.057Z,18.90
2017-08-16T22:46:52.372Z,19.00
2017-08-16T22:49:18.673Z,19.00
2017-08-16T22:51:45.004Z,19.00
2017-08-16T22:54:11.336Z,19.00
2017-08-16T22:56:37.688Z,19.00
2017-08-16T22:59:10.940Z,19.10
2017-08-16T23:01:37.239Z,19.10
2017-08-16T23:04:03.565Z,19.20
2017-08-16T23:06:29.920Z,19.20
2017-08-16T23:08:56.287Z,19.30
2017-08-16T23:11:22.608Z,19.30
2017-08-16T23:13:48.959Z,19.40
2017-08-16T23:16:15.240Z,19.40
2017-08-16T23:18:42.270Z,19.50
2017-08-16T23:21:08.589Z,19.50
2017-08-16T23:23:35.052Z,19.60
2017-08-16T23:26:01.345Z,19.60
2017-08-16T23:28:27.665Z,19.60
2017-08-16T23:30:53.999Z,19.60
2017-08-16T23:33:20.314Z,19.60
2017-08-16T23:35:46.640Z,19.60
2017-08-16T23:38:13.292Z,19.60
2017-08-16T23:40:39.776Z,19.60
2017-08-16T23:43:06.832Z,19.60
2017-08-16T23:45:33.113Z,19.60
2017-08-16T23:47:59.496Z,19.50
2017-08-16T23:50:25.816Z,19.50
2017-08-16T23:52:52.856Z,19.40
2017-08-16T23:55:19.904Z,19.30
2017-08-16T23:57:46.944Z,19.30
